createdAt,value
2023-12-17T00:00:53.445Z,82196.00
2023-12-17T00:01:53.430Z,82196.00
2023-12-17T00:03:16.870Z,82198.00
2023-12-17T00:03:54.552Z,82198.00
2023-12-17T00:04:53.514Z,82200.00
2023-12-17T00:05:53.479Z,82198.00
2023-12-17T00:06:53.523Z,82199.00
2023-12-17T00:07:53.458Z,82202.00
2023-12-17T00:08:53.542Z,82201.00
2023-12-17T00:09:53.473Z,82204.00
2023-12-17T00:10:53.505Z,82203.00
2023-12-17T00:11:53.562Z,82203.00
2023-12-17T00:12:53.435Z,82203.00
2023-12-17T00:13:53.499Z,82204.00
2023-12-17T00:14:53.500Z,82204.00
2023-12-17T00:15:53.461Z,82205.00
2023-12-17T00:16:53.479Z,82207.00
2023-12-17T00:17:53.593Z,82208.00
2023-12-17T00:18:53.577Z,82207.00
2023-12-17T00:19:53.614Z,82208.00
2023-12-17T00:20:53.648Z,82209.00
2023-12-17T00:21:53.630Z,82209.00
2023-12-17T00:22:53.654Z,82211.00
2023-12-17T00:23:53.765Z,82211.00
2023-12-17T00:24:53.730Z,82210.00
2023-12-17T00:25:53.795Z,82211.00
2023-12-17T00:26:53.822Z,82212.00
2023-12-17T00:27:53.817Z,82213.00
2023-12-17T00:28:53.877Z,82212.00
2023-12-17T00:29:53.992Z,82212.00
2023-12-17T00:30:54.011Z,82214.00
2023-12-17T00:32:00.501Z,82215.00
2023-12-17T00:32:55.118Z,82216.00
2023-12-17T00:33:54.160Z,82218.00
2023-12-17T00:34:53.990Z,82218.00
2023-12-17T00:35:54.052Z,82219.00
2023-12-17T00:36:54.042Z,82221.00
2023-12-17T00:37:54.034Z,82220.00
2023-12-17T00:38:53.983Z,82223.00
2023-12-17T00:39:53.987Z,82221.00
2023-12-17T00:40:53.995Z,82223.00
2023-12-17T00:41:54.029Z,82224.00
2023-12-17T00:42:53.974Z,82225.00
2023-12-17T00:43:53.987Z,82226.00
2023-12-17T00:44:54.081Z,82225.00
2023-12-17T00:45:54.008Z,82228.00
2023-12-17T00:46:53.987Z,82228.00
2023-12-17T00:47:54.149Z,82229.00
2023-12-17T00:48:54.180Z,82230.00
2023-12-17T00:49:54.553Z,82230.00
2023-12-17T00:50:54.136Z,82231.00
2023-12-17T00:51:54.168Z,82232.00
2023-12-17T00:52:54.219Z,82230.00
2023-12-17T00:53:54.279Z,82232.00
2023-12-17T00:54:54.272Z,82232.00
2023-12-17T00:55:54.334Z,82232.00
2023-12-17T00:56:54.400Z,82234.00
2023-12-17T00:57:54.418Z,82234.00
2023-12-17T00:58:54.426Z,82236.00
2023-12-17T00:59:54.562Z,82236.00
2023-12-17T01:00:55.988Z,82237.00
2023-12-17T01:01:54.550Z,82238.00
2023-12-17T01:02:54.651Z,82239.00
2023-12-17T01:03:54.629Z,82238.00
2023-12-17T01:04:55.488Z,82240.00
2023-12-17T01:05:54.892Z,82240.00
2023-12-17T01:06:54.761Z,82242.00
2023-12-17T01:07:54.730Z,82242.00
2023-12-17T01:08:55.041Z,82243.00
2023-12-17T01:09:54.920Z,82245.00
2023-12-17T01:10:54.870Z,82244.00
2023-12-17T01:11:54.958Z,82243.00
2023-12-17T01:12:54.963Z,82243.00
2023-12-17T01:13:55.037Z,82246.00
2023-12-17T01:14:55.105Z,82246.00
2023-12-17T01:15:55.121Z,82247.00
2023-12-17T01:16:55.064Z,82246.00
2023-12-17T01:17:55.228Z,82249.00
2023-12-17T01:18:55.269Z,82249.00
2023-12-17T01:19:55.240Z,82249.00
2023-12-17T01:20:55.285Z,82248.00
2023-12-17T01:21:55.224Z,82248.00
2023-12-17T01:22:55.233Z,82251.00
2023-12-17T01:23:55.367Z,82252.00
2023-12-17T01:24:55.259Z,82252.00
2023-12-17T01:25:55.328Z,82254.00
2023-12-17T01:26:55.409Z,82254.00
2023-12-17T01:27:55.377Z,82255.00
2023-12-17T01:28:55.452Z,82255.00
2023-12-17T01:29:55.455Z,82256.00
2023-12-17T01:30:55.498Z,82255.00
2023-12-17T01:31:55.618Z,82256.00
2023-12-17T01:32:55.582Z,82256.00
2023-12-17T01:33:55.608Z,82258.00
2023-12-17T01:34:55.553Z,82261.00
2023-12-17T01:35:56.081Z,82261.00
2023-12-17T01:36:55.625Z,82260.00
2023-12-17T01:37:55.689Z,82262.00
2023-12-17T01:38:55.756Z,82262.00
2023-12-17T01:39:55.729Z,82262.00
2023-12-17T01:40:55.753Z,82263.00
2023-12-17T01:41:55.771Z,82266.00
2023-12-17T01:42:55.784Z,82267.00
2023-12-17T01:43:55.812Z,82268.00
2023-12-17T01:44:55.984Z,82268.00
2023-12-17T01:45:55.933Z,82267.00
2023-12-17T01:46:55.885Z,82268.00
2023-12-17T01:47:56.044Z,82269.00
2023-12-17T01:48:56.661Z,82271.00
2023-12-17T01:49:56.038Z,82270.00
2023-12-17T01:50:56.066Z,82272.00
2023-12-17T01:51:56.064Z,82272.00
2023-12-17T01:52:56.086Z,82272.00
2023-12-17T01:53:56.122Z,82273.00
2023-12-17T01:54:56.147Z,82272.00
2023-12-17T01:55:56.153Z,82273.00
2023-12-17T01:56:56.228Z,82272.00
2023-12-17T01:57:56.202Z,82273.00
2023-12-17T01:58:56.293Z,82276.00
2023-12-17T01:59:56.287Z,82277.00
2023-12-17T02:00:56.366Z,82278.00
2023-12-17T02:01:56.364Z,82279.00
2023-12-17T02:02:56.499Z,82279.00
2023-12-17T02:03:56.537Z,82281.00
2023-12-17T02:04:56.466Z,82282.00
2023-12-17T02:05:56.593Z,82279.00
2023-12-17T02:06:56.713Z,82280.00
2023-12-17T02:07:56.649Z,82278.00
2023-12-17T02:08:56.740Z,82281.00
2023-12-17T02:09:56.717Z,82281.00
2023-12-17T02:10:56.778Z,82284.00
2023-12-17T02:11:56.931Z,82284.00
2023-12-17T02:12:56.916Z,82282.00
2023-12-17T02:13:56.935Z,82284.00
2023-12-17T02:14:57.028Z,82285.00
2023-12-17T02:15:57.058Z,82285.00
2023-12-17T02:16:57.227Z,82287.00
2023-12-17T02:17:57.221Z,82288.00
2023-12-17T02:18:57.361Z,82287.00
2023-12-17T02:19:57.248Z,82290.00
2023-12-17T02:20:57.314Z,82290.00
2023-12-17T02:21:57.312Z,82289.00
2023-12-17T02:22:57.338Z,82290.00
2023-12-17T02:23:57.432Z,82289.00
2023-12-17T02:24:57.422Z,82292.00
2023-12-17T02:25:57.561Z,82292.00
2023-12-17T02:26:57.605Z,82292.00
2023-12-17T02:27:57.618Z,82291.00
2023-12-17T02:28:57.655Z,82292.00
2023-12-17T02:29:57.718Z,82294.00
2023-12-17T02:30:57.755Z,82295.00
2023-12-17T02:31:57.784Z,82296.00
2023-12-17T02:32:57.914Z,82296.00
2023-12-17T02:33:58.016Z,82297.00
2023-12-17T02:34:57.921Z,82298.00
2023-12-17T02:35:58.000Z,82300.00
2023-12-17T02:36:58.028Z,82300.00
2023-12-17T02:37:58.113Z,82300.00
2023-12-17T02:38:58.184Z,82302.00
2023-12-17T02:39:58.201Z,82300.00
2023-12-17T02:40:58.272Z,82301.00
2023-12-17T02:41:58.320Z,82302.00
2023-12-17T02:42:58.335Z,82303.00
2023-12-17T02:43:58.385Z,82302.00
2023-12-17T02:44:59.106Z,82305.00
2023-12-17T02:45:58.448Z,82304.00
2023-12-17T02:46:58.567Z,82305.00
2023-12-17T02:47:58.637Z,82305.00
2023-12-17T02:48:58.767Z,82305.00
2023-12-17T02:49:59.575Z,82306.00
2023-12-17T02:50:58.742Z,82306.00
2023-12-17T02:51:58.689Z,82307.00
2023-12-17T02:52:58.750Z,82306.00
2023-12-17T02:53:58.816Z,82306.00
2023-12-17T02:54:58.811Z,82307.00
2023-12-17T02:55:58.813Z,82307.00
2023-12-17T02:56:58.994Z,82306.00
2023-12-17T02:57:58.938Z,82309.00
2023-12-17T02:58:59.054Z,82307.00
2023-12-17T02:59:59.024Z,82309.00
2023-12-17T03:00:59.085Z,82311.00
2023-12-17T03:01:59.130Z,82310.00
2023-12-17T03:02:59.338Z,82312.00
2023-12-17T03:03:59.343Z,82313.00
2023-12-17T03:04:59.233Z,82312.00
2023-12-17T03:05:59.224Z,82312.00
2023-12-17T03:06:59.247Z,82311.00
2023-12-17T03:07:59.320Z,82314.00
2023-12-17T03:08:59.368Z,82313.00
2023-12-17T03:09:59.508Z,82312.00
2023-12-17T03:10:59.401Z,82314.00
2023-12-17T03:11:59.456Z,82313.00
2023-12-17T03:12:59.497Z,82315.00
2023-12-17T03:13:59.502Z,82316.00
2023-12-17T03:14:59.601Z,82316.00
2023-12-17T03:15:59.585Z,82317.00
2023-12-17T03:16:59.646Z,82318.00
2023-12-17T03:17:59.754Z,82317.00
2023-12-17T03:18:59.810Z,82319.00
2023-12-17T03:19:59.783Z,82320.00
2023-12-17T03:20:59.886Z,82320.00
2023-12-17T03:21:59.829Z,82321.00
2023-12-17T03:22:59.820Z,82319.00
2023-12-17T03:23:59.936Z,82320.00
2023-12-17T03:24:59.942Z,82321.00
2023-12-17T03:25:59.947Z,82320.00
2023-12-17T03:27:00.048Z,82321.00
2023-12-17T03:28:00.013Z,82321.00
2023-12-17T03:29:00.086Z,82322.00
2023-12-17T03:30:00.100Z,82321.00
2023-12-17T03:31:00.169Z,82323.00
2023-12-17T03:32:00.311Z,82323.00
2023-12-17T03:33:00.371Z,82321.00
2023-12-17T03:34:00.352Z,82324.00
2023-12-17T03:35:00.258Z,82323.00
2023-12-17T03:36:00.583Z,82324.00
2023-12-17T03:37:00.339Z,82323.00
2023-12-17T03:38:00.343Z,82323.00
2023-12-17T03:39:00.465Z,82324.00
2023-12-17T03:40:00.467Z,82324.00
2023-12-17T03:41:00.461Z,82325.00
2023-12-17T03:42:00.598Z,82324.00
2023-12-17T03:43:00.525Z,82326.00
2023-12-17T03:44:00.574Z,82325.00
2023-12-17T03:45:00.699Z,82325.00
2023-12-17T03:46:00.637Z,82327.00
2023-12-17T03:47:00.648Z,82326.00
2023-12-17T03:48:00.809Z,82326.00
2023-12-17T03:49:00.862Z,82327.00
2023-12-17T03:50:01.109Z,82327.00
2023-12-17T03:51:00.896Z,82329.00
2023-12-17T03:52:00.996Z,82327.00
2023-12-17T03:53:00.893Z,82326.00
2023-12-17T03:54:01.023Z,82328.00
2023-12-17T03:55:00.984Z,82327.00
2023-12-17T03:56:01.043Z,82327.00
2023-12-17T03:57:01.630Z,82327.00
2023-12-17T03:58:01.107Z,82329.00
2023-12-17T03:59:01.110Z,82330.00
2023-12-17T04:00:01.205Z,82328.00
2023-12-17T04:01:01.186Z,82330.00
2023-12-17T04:02:01.219Z,82331.00
2023-12-17T04:03:01.306Z,82330.00
2023-12-17T04:04:01.451Z,82331.00
2023-12-17T04:05:01.397Z,82330.00
2023-12-17T04:06:01.384Z,82331.00
2023-12-17T04:07:01.352Z,82332.00
2023-12-17T04:08:01.560Z,82331.00
2023-12-17T04:09:01.485Z,82332.00
2023-12-17T04:10:01.522Z,82331.00
2023-12-17T04:11:01.538Z,82331.00
2023-12-17T04:12:01.697Z,82331.00
2023-12-17T04:13:01.602Z,82331.00
2023-12-17T04:14:01.660Z,82332.00
2023-12-17T04:15:01.808Z,82331.00
2023-12-17T04:16:01.719Z,82331.00
2023-12-17T04:17:01.757Z,82332.00
2023-12-17T04:18:01.994Z,82329.00
2023-12-17T04:19:09.332Z,97266.00
2023-12-17T04:20:09.181Z,97265.00
2023-12-17T04:21:09.216Z,97266.00
2023-12-17T04:22:09.202Z,97266.00
2023-12-17T04:23:09.143Z,97265.00
2023-12-17T04:24:09.245Z,97264.00
2023-12-17T04:25:09.211Z,97266.00
2023-12-17T04:26:09.153Z,97263.00
2023-12-17T04:27:09.209Z,97264.00
2023-12-17T04:28:09.243Z,97265.00
2023-12-17T04:29:09.206Z,97266.00
2023-12-17T04:30:09.286Z,97265.00
2023-12-17T04:31:16.661Z,97263.00
2023-12-17T04:32:16.524Z,97261.00
2023-12-17T04:33:16.582Z,97261.00
2023-12-17T04:34:16.744Z,97260.00
2023-12-17T04:35:16.451Z,97263.00
2023-12-17T04:36:16.545Z,97265.00
2023-12-17T04:37:16.492Z,97263.00
2023-12-17T04:38:16.489Z,97265.00
2023-12-17T04:39:16.513Z,97263.00
2023-12-17T04:40:16.560Z,97263.00
2023-12-17T04:41:16.487Z,97265.00
2023-12-17T04:42:16.512Z,97264.00
2023-12-17T04:43:16.518Z,97267.00
2023-12-17T04:44:16.474Z,97265.00
2023-12-17T04:45:16.527Z,97268.00
2023-12-17T04:46:16.467Z,97266.00
2023-12-17T04:47:16.488Z,97267.00
2023-12-17T04:48:16.607Z,97269.00
2023-12-17T04:49:16.668Z,97266.00
2023-12-17T04:50:16.501Z,97265.00
2023-12-17T04:51:16.533Z,97265.00
2023-12-17T04:52:16.500Z,97266.00
2023-12-17T04:53:16.471Z,97268.00
2023-12-17T04:54:16.680Z,97271.00
2023-12-17T04:55:16.488Z,97271.00
2023-12-17T04:56:16.554Z,97272.00
2023-12-17T04:57:16.678Z,97271.00
2023-12-17T04:58:16.511Z,97271.00
2023-12-17T04:59:16.462Z,97271.00
2023-12-17T05:00:16.629Z,97273.00
2023-12-17T05:01:16.619Z,97270.00
2023-12-17T05:02:16.506Z,97273.00
2023-12-17T05:03:16.593Z,97271.00
2023-12-17T05:04:16.649Z,97271.00
2023-12-17T05:05:16.528Z,97272.00
2023-12-17T05:06:16.591Z,97270.00
2023-12-17T05:07:16.515Z,97270.00
2023-12-17T05:08:16.518Z,97271.00
2023-12-17T05:09:16.578Z,97271.00
2023-12-17T05:10:16.501Z,97273.00
2023-12-17T05:11:16.543Z,97272.00
2023-12-17T05:12:16.725Z,97272.00
2023-12-17T05:13:16.618Z,97273.00
2023-12-17T05:14:16.672Z,97273.00
2023-12-17T05:15:16.742Z,97270.00
2023-12-17T05:16:16.723Z,97271.00
2023-12-17T05:17:16.716Z,97270.00
2023-12-17T05:18:16.847Z,97267.00
2023-12-17T05:19:16.962Z,97270.00
2023-12-17T05:20:16.919Z,97272.00
2023-12-17T05:21:16.916Z,97273.00
2023-12-17T05:22:16.876Z,97272.00
2023-12-17T05:23:16.993Z,97270.00
2023-12-17T05:24:17.116Z,97270.00
2023-12-17T05:25:17.228Z,97269.00
2023-12-17T05:26:17.050Z,97268.00
2023-12-17T05:27:17.108Z,97269.00
2023-12-17T05:28:17.167Z,97271.00
2023-12-17T05:29:17.106Z,97271.00
2023-12-17T05:30:17.220Z,97272.00
2023-12-17T05:31:17.197Z,97269.00
2023-12-17T05:32:17.216Z,97270.00
2023-12-17T05:33:17.435Z,97266.00
2023-12-17T05:34:17.373Z,97268.00
2023-12-17T05:35:17.325Z,97267.00
2023-12-17T05:36:17.406Z,97270.00
2023-12-17T05:37:17.363Z,97272.00
2023-12-17T05:38:17.400Z,97273.00
2023-12-17T05:39:17.473Z,97273.00
2023-12-17T05:40:17.525Z,97274.00
2023-12-17T05:41:17.578Z,97273.00
2023-12-17T05:42:17.645Z,97271.00
2023-12-17T05:43:17.573Z,97271.00
2023-12-17T05:44:17.623Z,97270.00
2023-12-17T05:45:17.690Z,97271.00
2023-12-17T05:46:17.803Z,97271.00
2023-12-17T05:47:17.751Z,97271.00
2023-12-17T05:48:17.962Z,97272.00
2023-12-17T05:49:18.012Z,97272.00
2023-12-17T05:50:17.940Z,97270.00
2023-12-17T05:51:17.890Z,97272.00
2023-12-17T05:52:17.971Z,97270.00
2023-12-17T05:53:19.006Z,97270.00
2023-12-17T05:54:18.027Z,97273.00
2023-12-17T05:55:18.076Z,97273.00
2023-12-17T05:56:18.083Z,97277.00
2023-12-17T05:57:18.195Z,97278.00
2023-12-17T05:58:18.205Z,97283.00
2023-12-17T05:59:18.202Z,97284.00
2023-12-17T06:00:18.308Z,97282.00
2023-12-17T06:01:18.329Z,97282.00
2023-12-17T06:02:18.363Z,97282.00
2023-12-17T06:03:18.395Z,97282.00
2023-12-17T06:04:18.415Z,97282.00
2023-12-17T06:05:18.376Z,97280.00
2023-12-17T06:06:18.425Z,97282.00
2023-12-17T06:07:18.487Z,97285.00
2023-12-17T06:08:18.467Z,97288.00
2023-12-17T06:09:18.570Z,97290.00
2023-12-17T06:10:18.587Z,97291.00
2023-12-17T06:11:18.527Z,97291.00
2023-12-17T06:12:18.593Z,97294.00
2023-12-17T06:13:18.655Z,97295.00
2023-12-17T06:14:18.652Z,97297.00
2023-12-17T06:15:19.142Z,97294.00
2023-12-17T06:16:18.730Z,97294.00
2023-12-17T06:17:18.763Z,97294.00
2023-12-17T06:18:19.775Z,97292.00
2023-12-17T06:19:18.993Z,97294.00
2023-12-17T06:20:18.858Z,97297.00
2023-12-17T06:21:18.910Z,97300.00
2023-12-17T06:22:18.976Z,97302.00
2023-12-17T06:23:18.984Z,97304.00
2023-12-17T06:24:19.051Z,97304.00
2023-12-17T06:25:19.036Z,97306.00
2023-12-17T06:26:19.045Z,97304.00
2023-12-17T06:27:19.118Z,97298.00
2023-12-17T06:28:19.228Z,97297.00
2023-12-17T06:29:19.169Z,97294.00
2023-12-17T06:30:19.327Z,97296.00
2023-12-17T06:31:20.200Z,97300.00
2023-12-17T06:32:19.216Z,97303.00
2023-12-17T06:33:19.301Z,97303.00
2023-12-17T06:34:19.474Z,97302.00
2023-12-17T06:35:19.379Z,97301.00
2023-12-17T06:36:19.306Z,97298.00
2023-12-17T06:37:19.272Z,97296.00
2023-12-17T06:38:19.327Z,97296.00
2023-12-17T06:39:19.381Z,97294.00
2023-12-17T06:40:19.659Z,97294.00
2023-12-17T06:41:19.436Z,97291.00
2023-12-17T06:42:19.404Z,97291.00
2023-12-17T06:43:19.472Z,97292.00
2023-12-17T06:44:19.473Z,97292.00
2023-12-17T06:45:19.685Z,97289.00
2023-12-17T06:46:19.597Z,97289.00
2023-12-17T06:47:26.273Z,97287.00
2023-12-17T06:48:20.769Z,97289.00
2023-12-17T06:49:19.681Z,97286.00
2023-12-17T06:50:19.610Z,97285.00
2023-12-17T06:51:19.704Z,97286.00
2023-12-17T06:52:19.607Z,97283.00
2023-12-17T06:53:19.596Z,97284.00
2023-12-17T06:54:19.611Z,97282.00
2023-12-17T06:55:19.640Z,97286.00
2023-12-17T06:56:19.585Z,97284.00
2023-12-17T06:57:19.703Z,97286.00
2023-12-17T06:58:19.626Z,97285.00
2023-12-17T06:59:19.762Z,97286.00
2023-12-17T07:00:19.674Z,97286.00
2023-12-17T07:01:19.650Z,97288.00
2023-12-17T07:02:19.634Z,97285.00
2023-12-17T07:03:19.719Z,97284.00
2023-12-17T07:04:19.663Z,97285.00
2023-12-17T07:05:19.752Z,97284.00
2023-12-17T07:06:19.701Z,97283.00
2023-12-17T07:07:19.741Z,97285.00
2023-12-17T07:08:19.798Z,97285.00
2023-12-17T07:09:20.174Z,97284.00
2023-12-17T07:10:19.873Z,97287.00
2023-12-17T07:11:19.906Z,97284.00
2023-12-17T07:12:19.969Z,97283.00
2023-12-17T07:13:19.897Z,97280.00
2023-12-17T07:14:19.975Z,97277.00
2023-12-17T07:15:20.139Z,97273.00
2023-12-17T07:16:20.053Z,97276.00
2023-12-17T07:17:20.205Z,97273.00
2023-12-17T07:18:20.145Z,97271.00
2023-12-17T07:19:20.397Z,97273.00
2023-12-17T07:20:20.185Z,97272.00
2023-12-17T07:21:20.409Z,97276.00
2023-12-17T07:22:20.265Z,97274.00
2023-12-17T07:23:20.247Z,97275.00
2023-12-17T07:24:20.270Z,97277.00
2023-12-17T07:25:20.320Z,97278.00
2023-12-17T07:26:23.178Z,97277.00
2023-12-17T07:27:20.344Z,97277.00
2023-12-17T07:28:20.777Z,97277.00
2023-12-17T07:29:20.302Z,97275.00
2023-12-17T07:30:20.445Z,97277.00
2023-12-17T07:31:20.413Z,97275.00
2023-12-17T07:32:20.307Z,97276.00
2023-12-17T07:33:20.485Z,97276.00
2023-12-17T07:34:21.803Z,97274.00
2023-12-17T07:35:20.323Z,97273.00
2023-12-17T07:36:20.371Z,97273.00
2023-12-17T07:37:20.317Z,97274.00
2023-12-17T07:38:20.323Z,97273.00
2023-12-17T07:39:20.445Z,97273.00
2023-12-17T07:40:20.325Z,97273.00
2023-12-17T07:41:20.676Z,97274.00
2023-12-17T07:42:21.261Z,97272.00
2023-12-17T07:43:20.316Z,97272.00
2023-12-17T07:44:20.382Z,97275.00
2023-12-17T07:45:20.444Z,97276.00
2023-12-17T07:46:20.427Z,97279.00
2023-12-17T07:47:20.419Z,97280.00
2023-12-17T07:48:20.562Z,97280.00
2023-12-17T07:49:20.521Z,97285.00
2023-12-17T07:50:20.492Z,97282.00
2023-12-17T07:51:20.548Z,97284.00
2023-12-17T07:52:20.560Z,97285.00
2023-12-17T07:53:20.541Z,97286.00
2023-12-17T07:54:20.651Z,97290.00
2023-12-17T07:55:20.578Z,97290.00
2023-12-17T07:56:20.678Z,97292.00
2023-12-17T07:57:20.796Z,97288.00
2023-12-17T07:58:20.698Z,97288.00
2023-12-17T07:59:20.714Z,97284.00
2023-12-17T08:00:20.706Z,97282.00
2023-12-17T08:01:21.187Z,97280.00
2023-12-17T08:02:20.782Z,97282.00
2023-12-17T08:03:20.843Z,97281.00
2023-12-17T08:04:20.924Z,97286.00
2023-12-17T08:05:20.904Z,97286.00
2023-12-17T08:06:21.180Z,97285.00
2023-12-17T08:07:20.952Z,97285.00
2023-12-17T08:08:20.917Z,97284.00
2023-12-17T08:09:21.018Z,97284.00
2023-12-17T08:10:21.052Z,97285.00
2023-12-17T08:11:21.129Z,97281.00
2023-12-17T08:12:21.157Z,97281.00
2023-12-17T08:13:21.176Z,97278.00
2023-12-17T08:14:21.179Z,97274.00
2023-12-17T08:15:21.215Z,97276.00
2023-12-17T08:16:21.192Z,97277.00
2023-12-17T08:17:21.237Z,97280.00
2023-12-17T08:18:21.314Z,97283.00
2023-12-17T08:19:21.255Z,97282.00
2023-12-17T08:20:21.327Z,97281.00
2023-12-17T08:21:21.448Z,97280.00
2023-12-17T08:22:21.420Z,97280.00
2023-12-17T08:23:21.371Z,97279.00
2023-12-17T08:24:21.499Z,97281.00
2023-12-17T08:25:21.406Z,97285.00
2023-12-17T08:26:21.461Z,97285.00
2023-12-17T08:27:21.588Z,97287.00
2023-12-17T08:28:21.486Z,97286.00
2023-12-17T08:29:21.528Z,97287.00
2023-12-17T08:30:21.626Z,97284.00
2023-12-17T08:31:21.651Z,97285.00
2023-12-17T08:32:21.623Z,97287.00
2023-12-17T08:33:21.787Z,97288.00
2023-12-17T08:34:21.811Z,97291.00
2023-12-17T08:35:21.727Z,97293.00
2023-12-17T08:36:21.810Z,97298.00
2023-12-17T08:37:21.743Z,97296.00
2023-12-17T08:38:21.786Z,97298.00
2023-12-17T08:39:21.821Z,97294.00
2023-12-17T08:40:21.867Z,97291.00
2023-12-17T08:41:21.990Z,97288.00
2023-12-17T08:42:22.006Z,97284.00
2023-12-17T08:43:21.942Z,97283.00
2023-12-17T08:44:21.956Z,97284.00
2023-12-17T08:45:22.011Z,97285.00
2023-12-17T08:46:22.052Z,97288.00
2023-12-17T08:47:22.025Z,97288.00
2023-12-17T08:48:22.187Z,97287.00
2023-12-17T08:49:22.200Z,97287.00
2023-12-17T08:50:22.180Z,97285.00
2023-12-17T08:51:22.239Z,97284.00
2023-12-17T08:52:22.253Z,97278.00
2023-12-17T08:53:22.194Z,97277.00
2023-12-17T08:54:22.306Z,97275.00
2023-12-17T08:55:22.292Z,97274.00
2023-12-17T08:56:23.200Z,97273.00
2023-12-17T08:57:22.432Z,97271.00
2023-12-17T08:58:22.394Z,97271.00
2023-12-17T08:59:22.448Z,97271.00
2023-12-17T09:00:22.558Z,97269.00
2023-12-17T09:01:22.531Z,97269.00
2023-12-17T09:02:22.509Z,97269.00
2023-12-17T09:03:22.592Z,97269.00
2023-12-17T09:04:22.625Z,97269.00
2023-12-17T09:05:22.570Z,97269.00
2023-12-17T09:06:22.705Z,97264.00
2023-12-17T09:07:22.696Z,97263.00
2023-12-17T09:08:22.650Z,97262.00
2023-12-17T09:09:22.773Z,97262.00
2023-12-17T09:10:22.712Z,97262.00
2023-12-17T09:11:22.800Z,97261.00
2023-12-17T09:12:22.841Z,97262.00
2023-12-17T09:13:22.850Z,97262.00
2023-12-17T09:14:22.872Z,97261.00
2023-12-17T09:15:22.887Z,97262.00
2023-12-17T09:16:22.934Z,97261.00
2023-12-17T09:17:23.028Z,97258.00
2023-12-17T09:18:23.172Z,97257.00
2023-12-17T09:19:23.132Z,97258.00
2023-12-17T09:20:23.112Z,97261.00
2023-12-17T09:21:23.113Z,97261.00
2023-12-17T09:22:23.192Z,97263.00
2023-12-17T09:23:23.176Z,97262.00
2023-12-17T09:24:23.256Z,97259.00
2023-12-17T09:25:23.227Z,97260.00
2023-12-17T09:26:23.250Z,97258.00
2023-12-17T09:27:23.383Z,97259.00
2023-12-17T09:28:23.324Z,97257.00
2023-12-17T09:29:23.368Z,97255.00
2023-12-17T09:30:23.513Z,97258.00
2023-12-17T09:31:23.599Z,97254.00
2023-12-17T09:32:23.384Z,97254.00
2023-12-17T09:33:23.574Z,97254.00
2023-12-17T09:34:23.664Z,97253.00
2023-12-17T09:35:23.537Z,97253.00
2023-12-17T09:36:23.553Z,97254.00
2023-12-17T09:37:23.550Z,97253.00
2023-12-17T09:38:23.603Z,97252.00
2023-12-17T09:39:23.694Z,97251.00
2023-12-17T09:40:23.608Z,97251.00
2023-12-17T09:41:23.647Z,97252.00
2023-12-17T09:42:23.749Z,97253.00
2023-12-17T09:43:23.776Z,97255.00
2023-12-17T09:44:23.744Z,97255.00
2023-12-17T09:45:24.294Z,97253.00
2023-12-17T09:46:23.892Z,97254.00
2023-12-17T09:47:23.894Z,97253.00
2023-12-17T09:48:24.005Z,97251.00
2023-12-17T09:49:23.961Z,97250.00
2023-12-17T09:50:23.990Z,97247.00
2023-12-17T09:51:23.947Z,97247.00
2023-12-17T09:52:24.040Z,97246.00
2023-12-17T09:53:23.961Z,97246.00
2023-12-17T09:54:24.012Z,97245.00
2023-12-17T09:55:24.087Z,97246.00
2023-12-17T09:56:24.070Z,97243.00
2023-12-17T09:57:24.121Z,97241.00
2023-12-17T09:58:24.135Z,97236.00
2023-12-17T09:59:24.138Z,97234.00
2023-12-17T10:00:24.200Z,97233.00
2023-12-17T10:01:24.422Z,97231.00
2023-12-17T10:02:24.310Z,97232.00
2023-12-17T10:03:25.440Z,97231.00
2023-12-17T10:04:24.341Z,97229.00
2023-12-17T10:05:24.316Z,97229.00
2023-12-17T10:06:24.315Z,97226.00
2023-12-17T10:07:24.263Z,97222.00
2023-12-17T10:08:24.231Z,97221.00
2023-12-17T10:09:24.416Z,97216.00
2023-12-17T10:10:24.357Z,97215.00
2023-12-17T10:11:24.282Z,97211.00
2023-12-17T10:12:24.328Z,97208.00
2023-12-17T10:13:24.354Z,97207.00
2023-12-17T10:14:24.288Z,97206.00
2023-12-17T10:15:24.393Z,97205.00
2023-12-17T10:16:24.269Z,97205.00
2023-12-17T10:17:24.302Z,97199.00
2023-12-17T10:18:24.653Z,97197.00
2023-12-17T10:19:27.283Z,97196.00
2023-12-17T10:20:24.377Z,97193.00
2023-12-17T10:21:24.473Z,97192.00
2023-12-17T10:22:24.354Z,97195.00
2023-12-17T10:23:24.378Z,97189.00
2023-12-17T10:24:24.425Z,97189.00
2023-12-17T10:25:27.601Z,97188.00
2023-12-17T10:26:25.370Z,97187.00
2023-12-17T10:27:24.452Z,97185.00
2023-12-17T10:28:24.341Z,97185.00
2023-12-17T10:29:24.410Z,97182.00
2023-12-17T10:30:24.452Z,97179.00
2023-12-17T10:31:24.379Z,97180.00
2023-12-17T10:32:24.531Z,97176.00
2023-12-17T10:33:24.592Z,97178.00
2023-12-17T10:34:24.721Z,97175.00
2023-12-17T10:35:24.427Z,97174.00
2023-12-17T10:36:24.429Z,97170.00
2023-12-17T10:37:24.448Z,97170.00
2023-12-17T10:38:24.376Z,97166.00
2023-12-17T10:39:24.506Z,97167.00
2023-12-17T10:40:24.387Z,97164.00
2023-12-17T10:41:24.392Z,97165.00
2023-12-17T10:42:24.457Z,97165.00
2023-12-17T10:43:24.499Z,97164.00
2023-12-17T10:44:24.469Z,97161.00
2023-12-17T10:45:25.377Z,97162.00
2023-12-17T10:46:24.508Z,97159.00
2023-12-17T10:47:24.653Z,97157.00
2023-12-17T10:48:24.807Z,97157.00
2023-12-17T10:49:24.692Z,97155.00
2023-12-17T10:50:24.672Z,97154.00
2023-12-17T10:51:24.762Z,97152.00
2023-12-17T10:52:24.680Z,97150.00
2023-12-17T10:53:24.744Z,97150.00
2023-12-17T10:54:24.767Z,97149.00
2023-12-17T10:55:24.811Z,97148.00
2023-12-17T10:56:24.867Z,97144.00
2023-12-17T10:57:24.913Z,97145.00
2023-12-17T10:58:24.923Z,97145.00
2023-12-17T10:59:31.480Z,97142.00
2023-12-17T11:00:26.050Z,97140.00
2023-12-17T11:01:25.016Z,97142.00
2023-12-17T11:02:24.901Z,97139.00
2023-12-17T11:03:24.997Z,97141.00
2023-12-17T11:04:24.904Z,97139.00
2023-12-17T11:05:24.958Z,97138.00
2023-12-17T11:06:24.950Z,97137.00
2023-12-17T11:07:34.867Z,97137.00
2023-12-17T11:08:26.799Z,97134.00
2023-12-17T11:09:25.025Z,97129.00
2023-12-17T11:10:24.975Z,97128.00
2023-12-17T11:11:24.941Z,97128.00
2023-12-17T11:12:25.065Z,97126.00
2023-12-17T11:13:25.034Z,97124.00
2023-12-17T11:14:24.927Z,97126.00
2023-12-17T11:15:25.039Z,97126.00
2023-12-17T11:16:24.954Z,97124.00
2023-12-17T11:17:25.039Z,97121.00
2023-12-17T11:18:25.319Z,97119.00
2023-12-17T11:19:25.062Z,97119.00
2023-12-17T11:20:24.982Z,97118.00
2023-12-17T11:21:24.981Z,97119.00
2023-12-17T11:22:24.967Z,97118.00
2023-12-17T11:23:24.949Z,97119.00
2023-12-17T11:24:24.979Z,97117.00
2023-12-17T11:25:24.959Z,97117.00
2023-12-17T11:26:25.016Z,97114.00
2023-12-17T11:27:25.175Z,97112.00
2023-12-17T11:28:25.295Z,97112.00
2023-12-17T11:29:25.093Z,97111.00
2023-12-17T11:30:25.230Z,97113.00
2023-12-17T11:31:25.168Z,97111.00
2023-12-17T11:32:25.790Z,97110.00
2023-12-17T11:33:25.362Z,97108.00
2023-12-17T11:34:25.385Z,97108.00
2023-12-17T11:35:25.364Z,97106.00
2023-12-17T11:36:25.319Z,97103.00
2023-12-17T11:37:25.451Z,97100.00
2023-12-17T11:38:25.412Z,97102.00
2023-12-17T11:39:25.469Z,97100.00
2023-12-17T11:40:25.367Z,97103.00
2023-12-17T11:41:25.392Z,97102.00
2023-12-17T11:42:25.470Z,97102.00
2023-12-17T11:43:25.524Z,97102.00
2023-12-17T11:44:25.494Z,97100.00
2023-12-17T11:45:25.544Z,97098.00